This is the latest recevied weather packets stored in our database for station/object KB1RMA-13. If no packets are shown the sender has not sent any weather packets the latest 1 day(s).
| Time | Temp. | Humidity | Pressure | Rain* | Wind** | Luminosity | Snow |
|---|---|---|---|---|---|---|---|
| 1778005214 | 26.67° C | 46% | 1006.1 hPa | 0 mm | 3.13 m/s, 198° | 864 W/m² | - |
| 1778004911 | 27.22° C | 43% | 1005.8 hPa | 0 mm | 4.92 m/s, 172° | 852 W/m² | - |
| 1778004608 | 27.22° C | 44% | 1006.1 hPa | 0 mm | 6.71 m/s, 185° | 839 W/m² | - |
| 1778004304 | 27.22° C | 44% | 1006 hPa | 0 mm | 5.81 m/s, 199° | 840 W/m² | - |
| 1778004002 | 27.22° C | 42% | 1005.9 hPa | 0 mm | 4.47 m/s, 194° | 806 W/m² | - |
| 1778003697 | 26.67° C | 47% | 1006.1 hPa | 0 mm | 4.47 m/s, 180° | 844 W/m² | - |
| 1778003394 | 27.78° C | 40% | 1006.3 hPa | 0 mm | 3.13 m/s, 202° | 779 W/m² | - |
| 1778003091 | 27.78° C | 41% | 1006.2 hPa | 0 mm | 4.02 m/s, 233° | 857 W/m² | - |
| 1778002787 | 27.22° C | 40% | 1006.3 hPa | 0 mm | 4.02 m/s, 214° | 878 W/m² | - |
| 1778002484 | 27.22° C | 40% | 1006.6 hPa | 0 mm | 10.28 m/s, 200° | 867 W/m² | - |
| 1778002181 | 27.22° C | 43% | 1006.5 hPa | 0 mm | 5.81 m/s, 213° | 886 W/m² | - |
| 1778001879 | 27.22° C | 41% | 1006.7 hPa | 0 mm | 1.79 m/s, 222° | 880 W/m² | - |
| 1778001578 | 27.22° C | 40% | 1006.8 hPa | 0 mm | 7.6 m/s, 198° | 888 W/m² | - |
| 1778001275 | 27.22° C | 40% | 1007 hPa | 0 mm | 4.02 m/s, 197° | 887 W/m² | - |
| 1778000972 | 27.22° C | 39% | 1006.8 hPa | 0 mm | 5.81 m/s, 181° | 888 W/m² | - |
| 1778000669 | 26.67° C | 41% | 1006.8 hPa | 0 mm | 4.92 m/s, 203° | 897 W/m² | - |
| 1778000364 | 26.67° C | 40% | 1007.2 hPa | 0 mm | 6.26 m/s, 223° | 902 W/m² | - |
| 1778000060 | 26.67° C | 41% | 1007.2 hPa | 0 mm | 3.58 m/s, 196° | 891 W/m² | - |
| 1777999756 | 26.67° C | 41% | 1007.3 hPa | 0 mm | 7.15 m/s, 199° | 870 W/m² | - |
| 1777999453 | 26.67° C | 42% | 1007.7 hPa | 0 mm | 7.6 m/s, 224° | 872 W/m² | - |
| 1777999151 | 26.67° C | 41% | 1007.6 hPa | 0 mm | 8.94 m/s, 219° | 892 W/m² | - |
| 1777998850 | 26.11° C | 44% | 1007.6 hPa | 0 mm | 6.26 m/s, 209° | 867 W/m² | - |
| 1777998548 | 25.56° C | 44% | 1007.7 hPa | 0 mm | 7.6 m/s, 246° | 856 W/m² | - |
| 1777998243 | 25.56° C | 46% | 1007.8 hPa | 0 mm | 5.36 m/s, 181° | 187 W/m² | - |
| 1777997940 | 25.56° C | 44% | 1008 hPa | 0 mm | 7.6 m/s, 212° | 192 W/m² | - |
* Rain latest hour (hover to see other rain measurements)
** Current wind speed in m/s (hover to see current wind gust speed)